createdAt,value
2022-10-18T00:02:02.395Z,101518.69
2022-10-18T00:04:28.571Z,101520.44
2022-10-18T00:06:54.727Z,101532.53
2022-10-18T00:09:20.874Z,101530.84
2022-10-18T00:11:47.027Z,101524.47
2022-10-18T00:14:13.149Z,101531.28
2022-10-18T00:16:39.280Z,101533.00
2022-10-18T00:19:05.405Z,101525.72
2022-10-18T00:21:31.578Z,101524.56
2022-10-18T00:23:57.754Z,101519.03
2022-10-18T00:26:23.877Z,101525.09
2022-10-18T00:28:50.238Z,101525.00
2022-10-18T00:31:16.463Z,101526.63
2022-10-18T00:33:42.641Z,101521.97
2022-10-18T00:36:08.790Z,101527.00
2022-10-18T00:38:34.936Z,101517.31
2022-10-18T00:41:01.069Z,101520.69
2022-10-18T00:43:27.236Z,101511.81
2022-10-18T00:45:53.377Z,101516.22
2022-10-18T00:48:19.509Z,101525.84
2022-10-18T00:50:45.621Z,101519.63
2022-10-18T00:53:11.781Z,101519.72
2022-10-18T00:55:37.883Z,101518.69
2022-10-18T00:58:04.015Z,101523.03
2022-10-18T01:00:30.130Z,101524.56
2022-10-18T01:02:56.256Z,101520.06
2022-10-18T01:05:22.381Z,101525.16
2022-10-18T01:07:48.535Z,101518.72
2022-10-18T01:10:14.655Z,101515.69
2022-10-18T01:12:40.966Z,101515.38
2022-10-18T01:15:07.145Z,101511.50
2022-10-18T01:17:33.439Z,101512.69
2022-10-18T01:19:59.671Z,101507.06
2022-10-18T01:22:25.789Z,101510.28
2022-10-18T01:24:51.987Z,101498.63
2022-10-18T01:27:18.152Z,101509.94
2022-10-18T01:29:44.262Z,101512.56
2022-10-18T01:32:10.400Z,101512.34
2022-10-18T01:34:36.519Z,101517.53
2022-10-18T01:37:02.671Z,101509.25
2022-10-18T01:39:28.811Z,101506.44
2022-10-18T01:41:54.954Z,101502.63
2022-10-18T01:44:21.117Z,101504.81
2022-10-18T01:46:47.247Z,101495.78
2022-10-18T01:49:13.398Z,101502.59
2022-10-18T01:51:39.558Z,101502.53
2022-10-18T01:54:05.661Z,101503.34
2022-10-18T01:56:31.780Z,101499.78
2022-10-18T01:58:58.085Z,101493.84
2022-10-18T02:01:24.232Z,101493.25
2022-10-18T02:03:50.395Z,101496.91
2022-10-18T02:06:16.569Z,101484.56
2022-10-18T02:08:42.695Z,101478.53
2022-10-18T02:11:08.831Z,101481.25
2022-10-18T02:13:34.946Z,101484.84
2022-10-18T02:16:01.094Z,101479.66
2022-10-18T02:18:27.249Z,101471.84
2022-10-18T02:20:53.388Z,101472.00
2022-10-18T02:23:19.569Z,101478.03
2022-10-18T02:25:45.724Z,101472.66
2022-10-18T02:28:11.879Z,101481.63
2022-10-18T02:30:38.080Z,101464.19
2022-10-18T02:33:04.203Z,101469.63
2022-10-18T02:35:30.367Z,101476.03
2022-10-18T02:37:56.508Z,101479.09
2022-10-18T02:40:22.635Z,101484.53
2022-10-18T02:42:48.794Z,101473.31
2022-10-18T02:45:14.938Z,101477.03
2022-10-18T02:47:41.074Z,101470.75
2022-10-18T02:50:07.225Z,101473.50
2022-10-18T02:52:33.385Z,101472.63
2022-10-18T02:54:59.500Z,101483.34
2022-10-18T02:57:25.643Z,101488.78
2022-10-18T02:59:51.779Z,101495.75
2022-10-18T03:02:17.922Z,101485.13
2022-10-18T03:04:44.049Z,101482.31
2022-10-18T03:07:10.198Z,101484.13
2022-10-18T03:09:36.377Z,101487.66
2022-10-18T03:12:02.504Z,101481.47
2022-10-18T03:14:28.662Z,101483.16
2022-10-18T03:16:54.891Z,101485.63
2022-10-18T03:19:21.021Z,101479.34
2022-10-18T03:21:47.201Z,101480.03
2022-10-18T03:24:13.350Z,101478.06
2022-10-18T03:26:39.514Z,101478.06
2022-10-18T03:29:05.693Z,101477.22
2022-10-18T03:31:31.842Z,101482.56
2022-10-18T03:33:58.006Z,101485.03
2022-10-18T03:36:24.191Z,101490.50
2022-10-18T03:38:50.421Z,101493.34
2022-10-18T03:41:16.573Z,101498.13
2022-10-18T03:43:42.754Z,101499.34
2022-10-18T03:46:08.887Z,101506.63
2022-10-18T03:48:35.021Z,101510.44
2022-10-18T03:51:01.156Z,101508.84
2022-10-18T03:53:27.282Z,101509.75
2022-10-18T03:55:53.451Z,101507.13
2022-10-18T03:58:19.697Z,101503.41
2022-10-18T04:00:45.848Z,101504.31
2022-10-18T04:03:11.961Z,101509.28
2022-10-18T04:05:38.121Z,101514.72
2022-10-18T04:08:04.296Z,101513.09
2022-10-18T04:10:30.418Z,101515.53
2022-10-18T04:12:56.595Z,101521.75
2022-10-18T04:15:22.766Z,101517.41
2022-10-18T04:17:48.926Z,101522.63
2022-10-18T04:20:15.079Z,101526.34
2022-10-18T04:22:41.263Z,101527.28
2022-10-18T04:25:07.412Z,101533.38
2022-10-18T04:27:33.935Z,101534.16
2022-10-18T04:30:00.291Z,101535.03
2022-10-18T04:32:26.448Z,101540.47
2022-10-18T04:34:52.601Z,101541.13
2022-10-18T04:37:18.776Z,101535.63
2022-10-18T04:39:46.491Z,101534.50
2022-10-18T04:42:14.551Z,101550.47
2022-10-18T04:44:40.708Z,101547.06
2022-10-18T04:47:06.927Z,101543.53
2022-10-18T04:49:33.039Z,101546.16
2022-10-18T04:51:59.186Z,101541.72
2022-10-18T04:54:27.889Z,101541.19
2022-10-18T04:56:54.814Z,101543.16
2022-10-18T04:59:20.960Z,101542.31
2022-10-18T05:01:47.234Z,101547.69
2022-10-18T05:04:13.504Z,101551.31
2022-10-18T05:06:39.677Z,101547.00
2022-10-18T05:09:05.833Z,101547.25
2022-10-18T05:11:32.024Z,101547.16
2022-10-18T05:13:58.202Z,101542.81
2022-10-18T05:16:24.367Z,101548.06
2022-10-18T05:18:50.505Z,101553.44
2022-10-18T05:21:16.628Z,101556.22
2022-10-18T05:23:42.795Z,101547.28
2022-10-18T05:26:08.993Z,101542.81
2022-10-18T05:28:39.592Z,101541.97
2022-10-18T05:31:06.541Z,101534.91
2022-10-18T05:33:32.679Z,101535.00
2022-10-18T05:35:58.824Z,101542.97
2022-10-18T05:38:25.048Z,101539.47
2022-10-18T05:40:51.203Z,101541.28
2022-10-18T05:43:17.334Z,101553.59
2022-10-18T05:45:43.531Z,101554.38
2022-10-18T05:48:09.661Z,101549.19
2022-10-18T05:50:39.490Z,101546.56
2022-10-18T05:53:12.289Z,101548.50
2022-10-18T05:55:44.554Z,101540.72
2022-10-18T05:58:10.728Z,101541.56
2022-10-18T06:00:36.833Z,101540.88
2022-10-18T06:03:03.021Z,101548.69
2022-10-18T06:05:29.274Z,101538.22
2022-10-18T06:07:55.433Z,101539.00
2022-10-18T06:10:21.594Z,101537.25
2022-10-18T06:12:47.802Z,101536.25
2022-10-18T06:15:13.954Z,101530.06
2022-10-18T06:17:40.117Z,101532.63
2022-10-18T06:20:06.324Z,101544.66
2022-10-18T06:22:32.465Z,101549.03
2022-10-18T06:24:58.622Z,101547.28
2022-10-18T06:27:24.753Z,101546.38
2022-10-18T06:29:50.914Z,101547.16
2022-10-18T06:32:17.092Z,101547.75
2022-10-18T06:34:43.219Z,101552.94
2022-10-18T06:37:09.369Z,101551.00
2022-10-18T06:39:35.532Z,101553.63
2022-10-18T06:42:01.733Z,101547.59
2022-10-18T06:44:27.875Z,101559.81
2022-10-18T06:46:54.039Z,101561.53
2022-10-18T06:49:20.392Z,101571.22
2022-10-18T06:51:46.649Z,101562.63
2022-10-18T06:54:18.036Z,101578.25
2022-10-18T06:56:44.744Z,101568.59
2022-10-18T06:59:10.945Z,101569.19
2022-10-18T07:01:37.382Z,101572.59
2022-10-18T07:04:03.697Z,101568.06
2022-10-18T07:06:29.878Z,101570.56
2022-10-18T07:08:56.023Z,101576.44
2022-10-18T07:11:22.163Z,101576.16
2022-10-18T07:13:48.292Z,101583.03
2022-10-18T07:16:17.395Z,101588.22
2022-10-18T07:18:44.838Z,101588.09
2022-10-18T07:21:11.040Z,101598.72
2022-10-18T07:23:37.222Z,101603.22
2022-10-18T07:26:03.424Z,101612.97
2022-10-18T07:28:29.702Z,101618.34
2022-10-18T07:30:55.902Z,101612.19
2022-10-18T07:33:22.106Z,101616.47
2022-10-18T07:35:48.292Z,101620.47
2022-10-18T07:38:14.472Z,101627.53
2022-10-18T07:40:40.691Z,101634.75
2022-10-18T07:43:09.222Z,101639.00
2022-10-18T07:48:09.286Z,101640.88
2022-10-18T07:50:35.448Z,101628.88
2022-10-18T07:53:01.669Z,101632.28
2022-10-18T07:55:27.814Z,101642.97
2022-10-18T07:57:53.974Z,101641.09
2022-10-18T08:00:21.552Z,101649.78
2022-10-18T08:02:47.698Z,101653.97
2022-10-18T08:05:13.873Z,101658.22
2022-10-18T08:07:40.027Z,101654.66
2022-10-18T08:10:06.185Z,101665.94
2022-10-18T08:12:32.415Z,101659.06
2022-10-18T08:14:58.540Z,101658.13
2022-10-18T08:17:24.812Z,101660.69
2022-10-18T08:20:04.714Z,101653.81
2022-10-18T08:22:37.152Z,101644.88
2022-10-18T08:25:03.304Z,101647.97
2022-10-18T08:27:29.636Z,101652.97
2022-10-18T08:29:55.959Z,101649.13
2022-10-18T08:32:22.181Z,101659.97
2022-10-18T08:34:48.363Z,101661.56
2022-10-18T08:37:14.905Z,101664.19
2022-10-18T08:39:41.039Z,101673.25
2022-10-18T08:42:07.221Z,101672.47
2022-10-18T08:44:33.402Z,101667.00
2022-10-18T08:46:59.543Z,101659.88
2022-10-18T08:49:25.712Z,101674.75
2022-10-18T08:51:51.921Z,101665.75
2022-10-18T08:54:18.086Z,101668.81
2022-10-18T08:56:44.295Z,101671.72
2022-10-18T08:59:10.467Z,101677.09
2022-10-18T09:01:36.654Z,101671.19
2022-10-18T09:04:02.880Z,101657.50
2022-10-18T09:06:29.117Z,101664.34
2022-10-18T09:08:55.227Z,101651.72
2022-10-18T09:11:23.834Z,101666.38
2022-10-18T09:13:50.002Z,101664.59
2022-10-18T09:16:16.169Z,101673.28
2022-10-18T09:18:42.368Z,101677.72
2022-10-18T09:21:08.521Z,101670.25
2022-10-18T09:23:34.686Z,101670.56
2022-10-18T09:26:00.824Z,101667.63
2022-10-18T09:28:27.034Z,101665.25
2022-10-18T09:30:55.902Z,101662.25
2022-10-18T09:33:24.871Z,101657.56
2022-10-18T09:35:51.029Z,101660.75
2022-10-18T09:38:17.261Z,101656.97
2022-10-18T09:40:43.475Z,101668.19
2022-10-18T09:43:09.640Z,101669.19
2022-10-18T09:45:35.766Z,101664.94
2022-10-18T09:48:01.884Z,101665.25
2022-10-18T09:50:28.062Z,101676.75
2022-10-18T09:52:54.197Z,101674.16
2022-10-18T09:55:20.315Z,101677.53
2022-10-18T09:57:46.472Z,101672.31
2022-10-18T10:00:12.604Z,101675.22
2022-10-18T10:02:38.783Z,101673.31
2022-10-18T10:05:04.988Z,101672.63
2022-10-18T10:07:34.075Z,101683.16
2022-10-18T10:10:01.282Z,101689.47
2022-10-18T10:12:27.403Z,101687.75
2022-10-18T10:14:53.553Z,101690.28
2022-10-18T10:17:19.700Z,101696.09
2022-10-18T10:19:45.858Z,101704.19
2022-10-18T10:22:11.990Z,101696.44
2022-10-18T10:24:38.175Z,101687.94
2022-10-18T10:27:04.325Z,101698.75
2022-10-18T10:29:44.191Z,101697.25
2022-10-18T10:32:11.059Z,101698.75
2022-10-18T10:34:39.842Z,101699.78
2022-10-18T10:37:08.543Z,101691.28
2022-10-18T10:39:34.688Z,101699.41
2022-10-18T10:42:00.820Z,101700.31
2022-10-18T10:44:26.941Z,101689.97
2022-10-18T10:46:53.102Z,101697.47
2022-10-18T10:52:09.343Z,101697.19
2022-10-18T10:54:51.621Z,101698.94
2022-10-18T11:00:08.835Z,101692.25
2022-10-18T11:02:35.520Z,101685.56
2022-10-18T11:05:02.024Z,101697.19
2022-10-18T11:07:28.212Z,101698.19
2022-10-18T11:09:57.777Z,101692.00
2022-10-18T11:12:23.942Z,101692.38
2022-10-18T11:14:50.071Z,101692.88
2022-10-18T11:17:16.197Z,101690.44
2022-10-18T11:19:42.382Z,101688.59
2022-10-18T11:22:08.547Z,101689.03
2022-10-18T11:24:34.701Z,101688.78
2022-10-18T11:27:00.948Z,101682.72
2022-10-18T11:29:27.082Z,101686.38
2022-10-18T11:31:53.228Z,101687.53
2022-10-18T11:34:19.392Z,101690.19
2022-10-18T11:36:54.692Z,101684.44
2022-10-18T11:39:22.682Z,101687.59
2022-10-18T11:41:48.847Z,101683.56
2022-10-18T11:44:15.027Z,101683.47
2022-10-18T11:46:44.780Z,101684.31
2022-10-18T11:49:10.931Z,101674.97
2022-10-18T11:51:55.903Z,101670.75
2022-10-18T11:54:23.276Z,101667.47
2022-10-18T11:56:49.453Z,101654.53
2022-10-18T11:59:15.578Z,101665.13
2022-10-18T12:01:41.709Z,101666.09
2022-10-18T12:04:07.854Z,101657.72
2022-10-18T12:06:34.097Z,101657.19
2022-10-18T12:09:00.241Z,101657.31
2022-10-18T12:11:26.398Z,101659.63
2022-10-18T12:13:52.746Z,101660.59
2022-10-18T12:16:28.732Z,101659.09
2022-10-18T12:19:05.050Z,101661.97
2022-10-18T12:21:31.196Z,101658.88
2022-10-18T12:23:57.417Z,101655.28
2022-10-18T12:26:23.632Z,101661.19
2022-10-18T12:28:49.856Z,101658.09
2022-10-18T12:31:16.045Z,101660.03
2022-10-18T12:33:42.221Z,101651.34
2022-10-18T12:36:08.390Z,101653.22
2022-10-18T12:38:34.633Z,101653.44
2022-10-18T12:41:00.826Z,101657.38
2022-10-18T12:43:27.018Z,101659.97
2022-10-18T12:45:53.192Z,101652.66
2022-10-18T12:48:19.392Z,101655.81
2022-10-18T12:50:45.667Z,101659.94
2022-10-18T12:53:11.850Z,101657.41
2022-10-18T12:55:38.176Z,101666.00
2022-10-18T12:58:04.426Z,101645.53
2022-10-18T13:00:30.685Z,101657.50
2022-10-18T13:02:56.859Z,101656.69
2022-10-18T13:05:40.999Z,101654.31
2022-10-18T13:08:18.122Z,101648.06
2022-10-18T13:10:44.282Z,101654.88
2022-10-18T13:13:29.554Z,101649.78
2022-10-18T13:15:56.648Z,101649.66
2022-10-18T13:18:22.802Z,101652.72
2022-10-18T13:20:48.971Z,101651.03
2022-10-18T13:25:42.253Z,101649.00
2022-10-18T13:28:08.452Z,101646.56
2022-10-18T13:30:34.582Z,101654.09
2022-10-18T13:33:00.900Z,101653.03
2022-10-18T13:35:27.090Z,101650.06
2022-10-18T13:37:53.287Z,101647.31
2022-10-18T13:40:19.450Z,101654.72
2022-10-18T13:42:45.609Z,101643.06
2022-10-18T13:45:11.793Z,101647.53
2022-10-18T13:47:37.999Z,101639.47
2022-10-18T13:50:04.323Z,101637.56
2022-10-18T13:52:30.894Z,101642.66
2022-10-18T13:54:57.323Z,101643.63
2022-10-18T13:57:23.468Z,101649.88
2022-10-18T13:59:49.646Z,101652.72
2022-10-18T14:02:22.349Z,101652.09
2022-10-18T14:04:52.238Z,101649.72
2022-10-18T14:07:18.397Z,101654.47
2022-10-18T14:09:45.344Z,101658.97
2022-10-18T14:12:12.177Z,101657.25
2022-10-18T14:14:38.370Z,101652.81
2022-10-18T14:17:04.512Z,101655.72
2022-10-18T14:19:30.788Z,101659.22
2022-10-18T14:21:56.965Z,101657.72
2022-10-18T14:24:23.147Z,101657.72
2022-10-18T14:26:49.301Z,101660.38
2022-10-18T14:29:15.495Z,101654.53
2022-10-18T14:31:41.721Z,101657.09
2022-10-18T14:34:07.902Z,101654.66
2022-10-18T14:36:34.046Z,101659.09
2022-10-18T14:39:00.178Z,101659.19
2022-10-18T14:41:26.348Z,101659.28
2022-10-18T14:43:52.539Z,101655.78
2022-10-18T14:46:18.759Z,101657.78
2022-10-18T14:48:44.953Z,101659.69
2022-10-18T14:51:11.175Z,101667.94
2022-10-18T14:53:37.411Z,101660.00
2022-10-18T14:56:04.591Z,101657.66
2022-10-18T14:58:30.749Z,101663.06
2022-10-18T15:00:56.938Z,101658.91
2022-10-18T15:03:23.136Z,101664.19
2022-10-18T15:05:49.289Z,101656.78
2022-10-18T15:08:15.449Z,101668.56
2022-10-18T15:10:41.588Z,101660.13
2022-10-18T15:13:10.275Z,101667.34
2022-10-18T15:15:36.946Z,101668.28
2022-10-18T15:18:03.082Z,101668.59
2022-10-18T15:20:29.249Z,101670.38
2022-10-18T15:22:55.382Z,101666.25
2022-10-18T15:25:21.517Z,101673.44
2022-10-18T15:27:47.662Z,101668.34
2022-10-18T15:30:13.839Z,101664.94
2022-10-18T15:32:40.010Z,101659.94
2022-10-18T15:35:06.156Z,101670.53
2022-10-18T15:37:32.509Z,101669.88
2022-10-18T15:39:58.984Z,101669.22
2022-10-18T15:42:25.180Z,101674.50
2022-10-18T15:44:51.323Z,101674.81
2022-10-18T15:47:17.486Z,101665.16
2022-10-18T15:49:43.641Z,101678.69
2022-10-18T15:52:09.815Z,101676.13
2022-10-18T15:54:35.945Z,101686.88
2022-10-18T15:57:02.269Z,101678.19
2022-10-18T15:59:28.409Z,101687.34
2022-10-18T16:01:54.601Z,101682.16
2022-10-18T16:04:20.880Z,101686.78
2022-10-18T16:06:48.118Z,101682.75
2022-10-18T16:09:14.259Z,101689.34
2022-10-18T16:11:40.608Z,101687.06
2022-10-18T16:14:06.758Z,101681.31
2022-10-18T16:16:32.878Z,101699.25
2022-10-18T16:18:59.034Z,101686.22
2022-10-18T16:21:25.205Z,101688.50
2022-10-18T16:23:51.361Z,101695.00
2022-10-18T16:26:17.618Z,101692.53
2022-10-18T16:28:43.885Z,101695.38
2022-10-18T16:31:10.143Z,101694.97
2022-10-18T16:33:36.292Z,101697.44
2022-10-18T16:36:02.448Z,101698.63
2022-10-18T16:38:32.529Z,101708.72
2022-10-18T16:41:01.065Z,101709.88
2022-10-18T16:43:27.243Z,101713.69
2022-10-18T16:45:53.420Z,101714.69
2022-10-18T16:48:19.764Z,101720.06
2022-10-18T16:50:46.319Z,101718.56
2022-10-18T16:53:12.519Z,101720.53
2022-10-18T16:55:38.645Z,101721.53
2022-10-18T16:58:04.770Z,101718.16
2022-10-18T17:00:30.920Z,101723.50
2022-10-18T17:02:57.083Z,101723.59
2022-10-18T17:05:23.233Z,101726.31
2022-10-18T17:07:49.482Z,101723.19
2022-10-18T17:10:15.759Z,101733.06
2022-10-18T17:12:41.919Z,101725.22
2022-10-18T17:15:08.117Z,101724.66
2022-10-18T17:17:34.641Z,101731.06
2022-10-18T17:20:01.090Z,101732.84
2022-10-18T17:22:27.261Z,101730.38
2022-10-18T17:24:53.481Z,101729.50
2022-10-18T17:27:19.671Z,101706.03
2022-10-18T17:29:45.899Z,101734.97
2022-10-18T17:32:12.037Z,101733.25
2022-10-18T17:34:38.265Z,101729.88
2022-10-18T17:37:04.492Z,101730.69
2022-10-18T17:39:30.730Z,101732.59
2022-10-18T17:41:56.959Z,101733.50
2022-10-18T17:44:23.174Z,101732.66
2022-10-18T17:46:49.416Z,101732.75
2022-10-18T17:49:15.599Z,101733.78
2022-10-18T17:51:42.035Z,101725.97
2022-10-18T17:54:08.344Z,101731.22
2022-10-18T17:56:34.704Z,101735.66
2022-10-18T17:59:01.875Z,101732.00
2022-10-18T18:01:28.070Z,101734.78
2022-10-18T18:03:54.244Z,101727.81
2022-10-18T18:06:20.392Z,101727.06
2022-10-18T18:08:46.812Z,101729.69
2022-10-18T18:11:13.062Z,101741.03
2022-10-18T18:13:39.333Z,101747.06
2022-10-18T18:16:05.530Z,101744.53
2022-10-18T18:18:31.687Z,101745.44
2022-10-18T18:20:59.002Z,101750.81
2022-10-18T18:26:09.058Z,101750.13
2022-10-18T18:28:35.267Z,101751.91
2022-10-18T18:53:38.356Z,101745.34
2022-10-18T19:01:43.385Z,101747.41
2022-10-18T19:04:09.672Z,101746.53
2022-10-18T19:06:35.830Z,101744.84
2022-10-18T19:11:51.913Z,101746.53
2022-10-18T19:14:18.160Z,101736.06
2022-10-18T19:16:48.137Z,101731.97
2022-10-18T19:19:29.450Z,101736.63
2022-10-18T19:27:36.134Z,101722.09
2022-10-18T19:30:02.467Z,101713.47
2022-10-18T19:46:33.114Z,101728.13
2022-10-18T19:54:40.100Z,101735.81
2022-10-18T19:59:57.399Z,101741.56
2022-10-18T20:02:24.536Z,101740.72
2022-10-18T20:21:51.410Z,101754.59
2022-10-18T20:32:44.458Z,101756.38
2022-10-18T20:35:28.634Z,101760.03
2022-10-18T20:37:56.261Z,101755.69
2022-10-18T20:40:22.450Z,101757.72
2022-10-18T20:42:48.728Z,101762.03
2022-10-18T20:45:16.478Z,101751.13
2022-10-18T20:47:42.655Z,101750.47
2022-10-18T20:50:08.798Z,101751.63
2022-10-18T20:52:34.989Z,101751.84
2022-10-18T20:55:01.277Z,101750.16
2022-10-18T20:57:27.528Z,101754.66
2022-10-18T20:59:53.695Z,101745.81
2022-10-18T21:02:19.834Z,101751.00
2022-10-18T21:04:46.014Z,101748.44
2022-10-18T21:07:12.178Z,101737.81
2022-10-18T21:09:38.319Z,101744.03
2022-10-18T21:12:04.541Z,101744.03
2022-10-18T21:14:30.737Z,101738.75
2022-10-18T21:16:56.914Z,101733.59
2022-10-18T21:19:23.205Z,101735.28
2022-10-18T21:21:49.329Z,101730.94
2022-10-18T21:24:15.493Z,101729.13
2022-10-18T21:26:41.641Z,101725.75
2022-10-18T21:29:08.010Z,101722.41
2022-10-18T21:31:34.222Z,101723.56
2022-10-18T21:34:00.383Z,101718.91
2022-10-18T21:36:26.535Z,101722.72
2022-10-18T21:38:52.701Z,101711.56
2022-10-18T21:41:18.867Z,101715.16
2022-10-18T21:43:45.027Z,101714.69
2022-10-18T21:46:11.221Z,101724.59
2022-10-18T21:48:37.433Z,101718.63
2022-10-18T21:51:03.650Z,101714.56
2022-10-18T21:53:29.842Z,101714.72
2022-10-18T21:55:56.047Z,101708.09
2022-10-18T21:58:22.412Z,101700.53
2022-10-18T22:00:48.608Z,101694.47
2022-10-18T22:03:14.822Z,101698.94
2022-10-18T22:05:40.970Z,101700.19
2022-10-18T22:08:07.169Z,101692.38
2022-10-18T22:10:33.314Z,101691.75
2022-10-18T22:12:59.497Z,101686.63
2022-10-18T22:15:25.682Z,101686.84
2022-10-18T22:17:51.971Z,101689.69
2022-10-18T22:20:18.115Z,101689.97
2022-10-18T22:22:44.478Z,101694.50
2022-10-18T22:25:10.840Z,101696.28
2022-10-18T22:27:37.328Z,101697.34
2022-10-18T22:30:03.622Z,101694.56
2022-10-18T22:32:29.741Z,101690.91
2022-10-18T22:34:55.882Z,101691.69
2022-10-18T22:37:22.139Z,101696.78
2022-10-18T22:39:48.616Z,101697.44
2022-10-18T22:42:14.776Z,101697.28
2022-10-18T22:44:40.952Z,101695.22
2022-10-18T22:47:07.116Z,101704.78
2022-10-18T22:49:33.295Z,101701.94
2022-10-18T22:51:59.487Z,101703.50
2022-10-18T22:54:25.650Z,101701.50
2022-10-18T22:56:51.994Z,101694.22
2022-10-18T22:59:18.271Z,101697.41
2022-10-18T23:01:44.485Z,101695.47
2022-10-18T23:04:10.616Z,101696.94
2022-10-18T23:06:36.955Z,101698.28
2022-10-18T23:09:03.180Z,101702.47
2022-10-18T23:11:29.293Z,101699.53
2022-10-18T23:13:55.516Z,101702.00
2022-10-18T23:16:21.733Z,101706.22
2022-10-18T23:18:48.135Z,101696.31
2022-10-18T23:21:14.279Z,101701.56
2022-10-18T23:23:40.613Z,101699.78
2022-10-18T23:26:06.817Z,101702.56
2022-10-18T23:28:33.096Z,101696.38
2022-10-18T23:30:59.378Z,101709.47
2022-10-18T23:33:25.550Z,101708.91
2022-10-18T23:35:51.783Z,101704.72
2022-10-18T23:38:18.153Z,101706.56
2022-10-18T23:40:44.409Z,101699.91
2022-10-18T23:43:10.563Z,101706.16
2022-10-18T23:45:36.935Z,101708.66
2022-10-18T23:48:03.296Z,101701.06
2022-10-18T23:50:29.661Z,101711.59
2022-10-18T23:52:55.985Z,101714.06
2022-10-18T23:55:22.149Z,101716.13
2022-10-18T23:57:48.466Z,101717.81
